createdAt,value
2018-12-20T00:01:28.501Z,33.50
2018-12-20T00:06:24.509Z,25.93
2018-12-20T00:11:19.239Z,27.20
2018-12-20T00:16:15.690Z,32.50
2018-12-20T00:21:11.841Z,28.70
2018-12-20T00:26:06.915Z,29.33
2018-12-20T00:31:01.663Z,27.30
2018-12-20T00:35:57.420Z,28.00
2018-12-20T00:40:52.808Z,30.30
2018-12-20T00:45:47.734Z,27.93
2018-12-20T00:50:46.938Z,26.73
2018-12-20T00:55:49.295Z,30.67
2018-12-20T01:00:44.960Z,29.37
2018-12-20T01:05:39.804Z,34.73
2018-12-20T01:10:35.081Z,35.10
2018-12-20T01:15:31.616Z,32.77
2018-12-20T01:20:26.749Z,31.43
2018-12-20T01:25:22.778Z,35.40
2018-12-20T01:30:17.550Z,32.03
2018-12-20T01:35:13.443Z,27.13
2018-12-20T01:40:09.612Z,33.10
2018-12-20T01:45:05.380Z,28.97
2018-12-20T01:50:00.830Z,32.00
2018-12-20T01:54:56.420Z,26.37
2018-12-20T01:59:52.266Z,29.50
2018-12-20T02:04:48.491Z,27.17
2018-12-20T02:09:44.960Z,30.47
2018-12-20T02:14:39.835Z,27.77
2018-12-20T02:19:34.995Z,29.03
2018-12-20T02:24:31.631Z,27.90
2018-12-20T02:29:26.630Z,32.87
2018-12-20T02:34:21.366Z,30.30
2018-12-20T02:39:16.689Z,28.93
2018-12-20T02:44:11.668Z,28.33
2018-12-20T02:49:08.313Z,26.20
2018-12-20T02:54:04.377Z,29.90
2018-12-20T02:59:00.560Z,26.03
2018-12-20T03:03:55.216Z,29.13
2018-12-20T03:08:51.435Z,25.33
2018-12-20T03:13:46.877Z,29.03
2018-12-20T03:18:42.947Z,25.43
2018-12-20T03:23:39.295Z,24.10
2018-12-20T03:28:34.077Z,26.33
2018-12-20T03:33:30.477Z,23.93
2018-12-20T03:38:25.537Z,26.63
2018-12-20T03:43:21.534Z,24.37
2018-12-20T03:48:16.647Z,24.70
2018-12-20T03:53:11.702Z,26.17
2018-12-20T03:58:08.265Z,23.33
2018-12-20T04:24:30.765Z,54.67
2018-12-20T04:29:34.731Z,50.87
2018-12-20T04:50:32.901Z,16.97
2018-12-20T04:55:33.461Z,18.00
2018-12-20T05:00:33.229Z,18.63
2018-12-20T05:05:34.421Z,18.93
2018-12-20T05:31:32.583Z,15.53
2018-12-20T05:36:33.968Z,17.70
2018-12-20T05:41:34.891Z,15.03
2018-12-20T05:46:34.750Z,14.70
2018-12-20T05:51:29.874Z,15.63
2018-12-20T05:56:30.823Z,15.27
2018-12-20T06:01:33.558Z,17.57
2018-12-20T06:06:34.540Z,14.73
2018-12-20T06:11:29.249Z,15.27
2018-12-20T06:16:24.083Z,16.00
2018-12-20T06:21:19.211Z,14.70
2018-12-20T06:26:13.943Z,13.50
2018-12-20T06:41:41.954Z,10.90
2018-12-20T06:46:44.121Z,11.53
2018-12-20T06:57:21.469Z,10.20
2018-12-20T07:02:29.100Z,10.83
2018-12-20T07:07:24.061Z,12.37
2018-12-20T07:12:19.003Z,11.47
2018-12-20T07:17:14.131Z,11.87
2018-12-20T07:22:08.992Z,12.13
2018-12-20T07:27:03.680Z,11.93
2018-12-20T07:32:01.466Z,10.50
2018-12-20T07:36:56.986Z,11.03
2018-12-20T07:41:54.702Z,9.67
2018-12-20T07:46:52.967Z,10.30
2018-12-20T07:51:50.567Z,10.07
2018-12-20T07:56:46.396Z,9.17
2018-12-20T08:01:43.154Z,10.73
2018-12-20T08:06:37.924Z,9.43
2018-12-20T08:11:32.744Z,7.57
2018-12-20T08:21:49.354Z,8.03
2018-12-20T08:26:53.693Z,8.77
2018-12-20T08:31:57.492Z,10.00
2018-12-20T08:36:52.440Z,8.40
2018-12-20T08:41:53.055Z,10.17
2018-12-20T08:46:54.368Z,8.53
2018-12-20T08:57:09.523Z,7.60
2018-12-20T09:02:30.717Z,10.07
2018-12-20T09:07:27.088Z,7.37
2018-12-20T09:12:33.544Z,7.93
2018-12-20T09:18:39.520Z,6.70
2018-12-20T09:23:35.953Z,8.03
2018-12-20T09:28:35.025Z,6.37
2018-12-20T09:33:38.072Z,7.73
2018-12-20T09:38:36.250Z,6.77
2018-12-20T09:43:49.417Z,6.57
2018-12-20T09:54:43.888Z,5.97
2018-12-20T10:00:13.464Z,5.83
2018-12-20T10:17:10.862Z,4.50
2018-12-20T10:22:38.580Z,5.60
2018-12-20T10:35:33.684Z,4.17
2018-12-20T10:58:39.190Z,4.03
2018-12-20T11:10:29.595Z,3.40
2018-12-20T11:15:24.770Z,5.47
2018-12-20T11:52:19.593Z,5.77
2018-12-20T12:02:25.889Z,3.87
2018-12-20T12:12:52.370Z,3.47
2018-12-20T12:17:54.301Z,3.80
2018-12-20T12:22:51.141Z,3.80
2018-12-20T12:27:57.117Z,2.50
2018-12-20T12:33:00.571Z,4.27
2018-12-20T12:37:55.567Z,2.90
2018-12-20T12:42:50.243Z,2.77
2018-12-20T12:47:50.226Z,4.53
2018-12-20T12:52:44.877Z,4.73
2018-12-20T12:57:39.511Z,4.63
2018-12-20T13:02:34.163Z,3.47
2018-12-20T13:07:28.836Z,2.77
2018-12-20T13:12:24.588Z,3.40
2018-12-20T13:17:19.368Z,2.80
2018-12-20T13:22:14.304Z,2.63
2018-12-20T13:27:09.272Z,2.60
2018-12-20T13:32:04.064Z,2.77
2018-12-20T13:36:58.736Z,3.63
2018-12-20T13:41:53.529Z,2.77
2018-12-20T13:46:48.464Z,3.03
2018-12-20T13:51:43.702Z,3.53
2018-12-20T13:56:38.798Z,3.47
2018-12-20T14:01:35.117Z,4.03
2018-12-20T14:06:31.655Z,4.43
2018-12-20T14:11:28.045Z,3.10
2018-12-20T14:16:22.910Z,5.17
2018-12-20T14:21:18.683Z,4.90
2018-12-20T14:26:16.324Z,8.53
2018-12-20T14:31:11.239Z,3.73
2018-12-20T14:36:06.023Z,3.57
2018-12-20T14:41:09.206Z,5.30
2018-12-20T14:46:03.992Z,2.93
2018-12-20T14:50:58.837Z,3.20
2018-12-20T14:55:53.660Z,3.93
2018-12-20T15:00:48.528Z,3.47
2018-12-20T15:05:43.159Z,6.80
2018-12-20T15:10:37.960Z,3.10
2018-12-20T15:15:32.940Z,7.00
2018-12-20T15:20:27.703Z,3.33
2018-12-20T15:25:22.489Z,3.67
2018-12-20T15:30:17.173Z,3.60
2018-12-20T15:35:11.888Z,4.53
2018-12-20T15:40:09.998Z,4.30
2018-12-20T15:45:05.416Z,4.23
2018-12-20T15:50:05.586Z,5.33
2018-12-20T15:55:00.661Z,5.30
2018-12-20T16:00:08.118Z,5.87
2018-12-20T16:05:14.577Z,8.20
2018-12-20T16:10:23.995Z,5.97
2018-12-20T16:15:31.207Z,4.53
2018-12-20T16:20:28.402Z,4.40
2018-12-20T16:25:23.163Z,4.00
2018-12-20T16:30:18.014Z,5.77
2018-12-20T16:35:12.862Z,3.87
2018-12-20T16:40:07.860Z,4.03
2018-12-20T16:45:02.614Z,3.17
2018-12-20T16:49:57.470Z,3.67
2018-12-20T17:54:25.386Z,2.60
2018-12-20T17:59:20.167Z,3.33
2018-12-20T18:04:14.833Z,2.17
2018-12-20T18:09:11.477Z,2.10
2018-12-20T18:14:06.426Z,2.33
2018-12-20T18:19:04.251Z,2.80
2018-12-20T18:23:58.987Z,2.23
2018-12-20T18:28:53.675Z,2.03
2018-12-20T18:33:49.047Z,3.73
2018-12-20T18:38:43.886Z,2.27
2018-12-20T18:43:38.729Z,2.97
2018-12-20T18:48:33.484Z,3.30
2018-12-20T18:53:29.098Z,3.80
2018-12-20T18:58:24.214Z,4.77
2018-12-20T19:03:18.931Z,3.40
2018-12-20T19:08:13.883Z,3.13
2018-12-20T19:13:18.452Z,5.60
2018-12-20T19:18:17.749Z,3.07
2018-12-20T19:23:12.609Z,2.20
2018-12-20T19:28:07.568Z,2.10
2018-12-20T19:33:02.333Z,3.47
2018-12-20T19:37:57.045Z,5.80
2018-12-20T19:42:51.689Z,2.87
2018-12-20T19:47:46.448Z,3.07
2018-12-20T19:52:41.141Z,2.53
2018-12-20T19:57:35.786Z,3.57
2018-12-20T20:02:30.487Z,1.73
2018-12-20T20:07:25.215Z,3.33
2018-12-20T20:12:20.133Z,4.50
2018-12-20T20:17:15.171Z,4.03
2018-12-20T20:22:09.988Z,2.73
2018-12-20T20:27:04.627Z,2.07
2018-12-20T20:32:11.482Z,1.57
2018-12-20T20:37:12.603Z,2.80
2018-12-20T20:42:08.766Z,2.10
2018-12-20T20:47:07.407Z,5.63
2018-12-20T20:52:02.224Z,3.87
2018-12-20T20:56:56.993Z,2.03
2018-12-20T21:01:52.014Z,1.37
2018-12-20T21:06:47.345Z,1.30
2018-12-20T21:11:42.510Z,2.00
2018-12-20T21:16:37.268Z,2.87
2018-12-20T21:21:32.463Z,2.87
2018-12-20T21:26:29.035Z,2.47
2018-12-20T21:31:23.788Z,8.00
2018-12-20T21:36:18.556Z,2.40
2018-12-20T21:41:31.955Z,2.63
2018-12-20T21:46:26.784Z,3.47
2018-12-20T21:51:21.581Z,1.40
2018-12-20T21:56:18.802Z,1.70
2018-12-20T22:01:30.278Z,2.90
2018-12-20T22:06:30.558Z,2.77
2018-12-20T22:11:25.275Z,2.13
2018-12-20T22:16:20.110Z,2.70
2018-12-20T22:21:14.796Z,1.70
2018-12-20T22:31:37.267Z,1.70
2018-12-20T22:36:33.173Z,1.70
2018-12-20T22:41:39.929Z,1.43
2018-12-20T22:46:34.665Z,3.93
2018-12-20T22:51:39.328Z,2.97
2018-12-20T22:56:34.034Z,3.87
2018-12-20T23:01:29.022Z,5.70
2018-12-20T23:06:23.838Z,2.73
2018-12-20T23:11:40.776Z,2.00
2018-12-20T23:22:12.135Z,2.23
2018-12-20T23:27:08.645Z,5.17
2018-12-20T23:32:04.774Z,4.17
2018-12-20T23:37:01.309Z,1.90
2018-12-20T23:42:03.172Z,2.40
2018-12-20T23:46:57.806Z,2.27
2018-12-20T23:51:54.116Z,3.80
2018-12-20T23:56:49.486Z,2.90
